Airfield :
LOGIN :

Register | Disclaimer

   EN    FR    IT 

 










Legend :    VFR   Marginal VFR   IFR   Intensive IFR   Very Intensive IFR
Visi :
Ceiling :
>= 8 km
>= 3000ft
5 to 8 km
1000 to 3000 ft
1500m to 5 km
500 to 1000 ft
800 to 1500m
200 to 500 ft
< 800m
< 200 ft
Symbols :   Thunderstorms  Fog  Heavy snow  Heavy precipitations  Wind > 20 kt
SIGMETs :     Misc.  Thunderstorms  Icing  Turbulence  Mountain Waves  Volcanic Ashes







- Airport Elevation : 295 ft
- IATA code : ORN


DAOO - Es senia - Oran

CURRENT METAR :
  • 120500Z 25005KT 6000 FEW013 SCT020 11/10 Q1022

EXPIRED METARs :
  • 120430Z 25005KT 6000 FEW013 SCT020 11/10 Q1022
  • 120400Z 25005KT 6000 FEW013 SCT020 11/10 Q1022
  • 120330Z 20005KT 7000 FEW013 SCT020 11/10 Q1022
  • 120300Z 20005KT 7000 FEW013 SCT020 11/10 Q1022
  • 120230Z 24005KT 6000 FEW013 SCT020 11/10 Q1023
  • 120200Z 24005KT 6000 FEW013 SCT020 11/10 Q1023

TAF TAF DAOO
Valid from the 12 at 00:00 until the 13 at 00:00 UTC


112300Z 1200/1224 VRB02KT 8000 FEW013
PROB40
TEMPO 1200/1208 3000 BR BKN010
BECMG 1208/1210 26015KT 9999 SCT026
BECMG 1222/1224 VRB02KT 8000 SCT016
No reported NOTAMs for that airfield.



MET'MAP, your aeronautical weather chart ! - Copyright ORBIFLY December 2007 - Disclaimer

ORBIFLY MET'MAP TEAM :

Programming & Development : Alexandra Zaïnal
Concept & Development : Baudouin d'Aumeries
Co-Development & Prog : Marc-Olivier Méhu
Technical & hardware support : Manuel Goepfert

Contact : metmap@orbifly.com




SOURCES & CREDITS :

   NOAA